Terminal Aerodrome Forecast
Issued by NWS Austin/San Antonio, TX

Home | Current Version | Previous Version | Text Only | Print | Product List | Glossary On
Versions: 1 2 3 4 5 6 7 8 9 10 11 12 13 14 15 16 17 18 19 20 21
000
FTUS44 KEWX 191700 RRA
TAFDRT
TAF
KDRT 191741Z 1918/2018 12013KT P6SM SCT060 BKN250
     FM201000 12010KT 5SM BR BKN013
     FM201200 12010KT 3SM BR BKN008 OVC012
     FM201730 13013KT P6SM BKN020 OVC250=

USA.gov is the U.S. government's official web portal to all federal, state and local government web resources and services.